Time;durP1;ratioP1;P1;durP2;ratioP2;P2;SDS_P1;SDS_P2;PMS_P1;PMS_P2;Temp;Humidity;BMP_temperature;BMP_pressure;BME280_temperature;BME280_humidity;BME280_pressure;Samples;Min_cycle;Max_cycle;Signal;HPM_P1;HPM_P2
2022/03/09 00:02:05;;;;;;;34.42;19.95;;;1.40;99.90;;;;;;5039111;28;20490;-71
2022/03/09 00:04:32;;;;;;;32.17;19.10;;;1.50;99.90;;;;;;5042067;28;20037;-72
2022/03/09 00:06:59;;;;;;;34.72;21.35;;;1.40;99.90;;;;;;5042439;28;20041;-71
2022/03/09 00:09:27;;;;;;;31.83;20.23;;;1.50;99.90;;;;;;5040564;28;20477;-73
2022/03/09 00:11:54;;;;;;;35.13;19.95;;;1.50;99.90;;;;;;5052801;28;20055;-72
2022/03/09 00:14:21;;;;;;;36.03;20.95;;;1.60;99.90;;;;;;5052657;28;20076;-72
2022/03/09 00:16:49;;;;;;;30.88;19.20;;;1.70;99.90;;;;;;5052573;28;20082;-72
2022/03/09 00:19:16;;;;;;;34.42;20.83;;;1.70;99.90;;;;;;5052519;28;20041;-72
2022/03/09 00:21:44;;;;;;;34.78;21.33;;;1.60;99.90;;;;;;5052406;28;20049;-72
2022/03/09 00:24:11;;;;;;;36.33;20.38;;;1.70;99.90;;;;;;5052328;28;20442;-71
2022/03/09 00:26:38;;;;;;;38.90;21.25;;;1.70;99.90;;;;;;5052654;28;20485;-72
2022/03/09 00:29:06;;;;;;;25.83;15.50;;;1.70;99.90;;;;;;5065261;28;20052;-71
2022/03/09 00:31:33;;;;;;;28.98;16.60;;;1.50;99.90;;;;;;5072404;28;20037;-73
2022/03/09 00:34:01;;;;;;;25.05;17.23;;;1.20;99.90;;;;;;5071842;28;20044;-72
2022/03/09 00:36:28;;;;;;;22.27;14.45;;;1.10;99.90;;;;;;5072562;28;20120;-73
2022/03/09 00:38:56;;;;;;;19.88;13.98;;;1.00;99.90;;;;;;5072419;28;20066;-73
2022/03/09 00:41:23;;;;;;;23.38;15.07;;;0.90;99.90;;;;;;5072214;28;20051;-72
2022/03/09 00:43:50;;;;;;;18.60;13.23;;;0.90;99.90;;;;;;5071973;28;20051;-70
2022/03/09 00:46:18;;;;;;;24.70;14.52;;;1.00;99.90;;;;;;5072344;28;20044;-72
2022/03/09 00:48:45;;;;;;;23.25;14.15;;;0.90;99.90;;;;;;5071837;28;20052;-73
2022/03/09 00:51:12;;;;;;;20.10;13.88;;;1.10;99.90;;;;;;5071961;28;20051;-71
2022/03/09 00:53:40;;;;;;;22.42;14.23;;;1.20;99.90;;;;;;5072041;28;20426;-73
2022/03/09 00:56:07;;;;;;;20.85;12.55;;;1.50;99.90;;;;;;5072034;28;20041;-72
2022/03/09 00:58:35;;;;;;;21.00;12.57;;;1.30;99.90;;;;;;5070636;28;20094;-73
2022/03/09 01:01:03;;;;;;;18.17;12.75;;;1.20;99.90;;;;;;5071983;28;20048;-72
2022/03/09 01:03:31;;;;;;;19.00;11.98;;;1.00;99.90;;;;;;5071491;28;20064;-73
2022/03/09 01:05:58;;;;;;;17.95;11.55;;;1.00;99.90;;;;;;5071961;28;20044;-73
2022/03/09 01:08:26;;;;;;;20.08;13.43;;;1.00;99.90;;;;;;5070511;28;20037;-72
2022/03/09 01:10:54;;;;;;;17.63;11.60;;;0.90;99.90;;;;;;5071888;28;20041;-74
2022/03/09 01:13:21;;;;;;;17.48;11.55;;;0.90;99.90;;;;;;5070293;28;20049;-72
2022/03/09 01:15:48;;;;;;;21.92;12.18;;;1.00;99.90;;;;;;5071623;28;20040;-72
2022/03/09 01:18:16;;;;;;;19.35;12.23;;;1.10;99.90;;;;;;5071279;28;20055;-73
2022/03/09 01:20:44;;;;;;;22.55;13.07;;;1.10;99.90;;;;;;5071644;28;20090;-73
2022/03/09 01:23:12;;;;;;;18.92;11.90;;;1.00;99.90;;;;;;5071336;28;20048;-72
2022/03/09 01:25:39;;;;;;;17.88;12.30;;;1.00;99.90;;;;;;5071458;28;20090;-73
2022/03/09 01:28:06;;;;;;;19.35;12.45;;;1.20;99.90;;;;;;5068374;28;20033;-72
2022/03/09 01:30:33;;;;;;;18.35;12.85;;;1.20;99.90;;;;;;5051501;28;20045;-73
2022/03/09 01:33:01;;;;;;;18.88;11.45;;;1.20;99.90;;;;;;5051160;28;20045;-72
2022/03/09 01:35:28;;;;;;;21.88;13.13;;;1.00;99.90;;;;;;5050436;28;20067;-73
2022/03/09 01:37:55;;;;;;;21.45;12.50;;;1.00;99.90;;;;;;5051634;28;20041;-72
2022/03/09 01:40:23;;;;;;;18.02;13.07;;;1.10;99.90;;;;;;5051037;28;20037;-72
2022/03/09 01:42:51;;;;;;;17.15;11.35;;;1.20;99.90;;;;;;5050934;28;20112;-71
2022/03/09 01:45:20;;;;;;;20.23;13.25;;;1.10;99.90;;;;;;5051240;28;20045;-70
2022/03/09 01:47:48;;;;;;;17.37;12.20;;;1.20;99.90;;;;;;5051125;28;20447;-72
2022/03/09 01:50:15;;;;;;;19.35;12.35;;;1.00;99.90;;;;;;5051241;28;20503;-71
2022/03/09 01:52:43;;;;;;;22.60;13.15;;;0.90;99.90;;;;;;5051303;28;20039;-71
2022/03/09 01:55:11;;;;;;;20.17;11.93;;;1.00;99.90;;;;;;5051003;28;20198;-70
2022/03/09 01:57:41;;;;;;;21.52;13.18;;;0.90;99.90;;;;;;5051147;28;20106;-71
2022/03/09 02:00:09;;;;;;;19.20;12.60;;;1.00;99.90;;;;;;5051058;28;20084;-70
2022/03/09 02:02:37;;;;;;;21.85;12.88;;;1.20;99.90;;;;;;5050619;28;20458;-71
2022/03/09 02:05:05;;;;;;;18.80;13.10;;;1.30;99.90;;;;;;5051053;28;20040;-72
2022/03/09 02:10:20;;;;;;;17.02;12.13;;;1.00;99.90;;;;;;5050834;28;20041;-71
2022/03/09 02:12:48;;;;;;;27.30;12.63;;;0.90;99.90;;;;;;5050886;28;20052;-72
2022/03/09 02:15:15;;;;;;;19.73;12.98;;;1.00;99.90;;;;;;5050793;28;20060;-70
2022/03/09 02:17:42;;;;;;;19.90;12.60;;;1.30;99.90;;;;;;5050794;28;20061;-71
2022/03/09 02:20:10;;;;;;;22.92;14.45;;;1.30;99.90;;;;;;5050718;28;20161;-72
2022/03/09 02:22:40;;;;;;;20.60;12.70;;;1.40;99.90;;;;;;5051147;28;20047;-72
2022/03/09 02:25:13;;;;;;;19.98;12.90;;;1.40;99.90;;;;;;5050997;28;20037;-72
2022/03/09 02:27:42;;;;;;;21.23;12.63;;;1.30;99.90;;;;;;5050722;28;20036;-73
2022/03/09 02:30:13;;;;;;;20.70;12.60;;;1.40;99.90;;;;;;5069067;28;20055;-70
2022/03/09 02:32:43;;;;;;;18.83;13.27;;;1.50;99.90;;;;;;5070890;28;20435;-72
2022/03/09 02:35:11;;;;;;;20.30;13.15;;;1.40;99.90;;;;;;5070793;28;20041;-70
2022/03/09 02:37:39;;;;;;;20.90;13.70;;;1.40;99.90;;;;;;5070963;28;20036;-73
2022/03/09 02:40:13;;;;;;;18.23;13.50;;;1.40;99.90;;;;;;5070539;28;20047;-73
2022/03/09 02:42:41;;;;;;;19.92;13.07;;;1.40;99.90;;;;;;5070763;28;20055;-71
2022/03/09 02:45:11;;;;;;;19.30;13.68;;;1.30;99.90;;;;;;5071314;28;20396;-71
2022/03/09 02:47:42;;;;;;;23.65;13.68;;;1.40;99.90;;;;;;5074321;28;20499;-73
2022/03/09 02:50:15;;;;;;;21.30;13.18;;;1.30;99.90;;;;;;5074451;28;20180;-73
2022/03/09 02:52:44;;;;;;;19.02;13.43;;;1.40;99.90;;;;;;5074384;28;20083;-72
2022/03/09 02:55:12;;;;;;;21.92;13.50;;;1.30;99.90;;;;;;5073940;28;20163;-72
2022/03/09 02:57:40;;;;;;;27.33;16.23;;;1.10;99.90;;;;;;5074292;28;20388;-73
2022/03/09 03:00:09;;;;;;;25.77;16.08;;;1.10;99.90;;;;;;5074119;28;20467;-70
2022/03/09 03:02:37;;;;;;;25.75;15.95;;;1.10;99.90;;;;;;5074082;28;20451;-72
2022/03/09 03:05:06;;;;;;;31.73;18.45;;;1.00;99.90;;;;;;5074341;28;20487;-71
2022/03/09 03:07:33;;;;;;;31.38;18.30;;;1.00;99.90;;;;;;5074208;28;20040;-70
2022/03/09 03:10:01;;;;;;;35.38;19.42;;;1.00;99.90;;;;;;5073726;28;20044;-71
2022/03/09 03:12:29;;;;;;;34.97;19.92;;;1.00;99.90;;;;;;5074198;28;20041;-71
2022/03/09 03:14:56;;;;;;;34.78;18.67;;;0.90;99.90;;;;;;5073860;28;20037;-71
2022/03/09 03:17:23;;;;;;;28.55;17.90;;;0.70;99.90;;;;;;5073291;28;20471;-71
2022/03/09 03:19:50;;;;;;;38.83;22.70;;;0.60;99.90;;;;;;5073665;28;20048;-71
2022/03/09 03:22:18;;;;;;;34.58;18.80;;;0.60;99.90;;;;;;5074167;28;20046;-72
2022/03/09 03:24:48;;;;;;;38.05;20.65;;;0.60;99.90;;;;;;5073392;28;20044;-71
2022/03/09 03:27:15;;;;;;;35.15;20.23;;;0.80;99.90;;;;;;5073908;28;20068;-72
2022/03/09 03:29:43;;;;;;;37.22;21.23;;;0.80;99.90;;;;;;5059347;28;20041;-72
2022/03/09 03:32:11;;;;;;;32.13;17.77;;;0.70;99.90;;;;;;5053446;28;20044;-71
2022/03/09 03:34:38;;;;;;;31.08;18.33;;;0.90;99.90;;;;;;5053538;28;20037;-72
2022/03/09 03:37:06;;;;;;;34.53;20.45;;;1.10;99.90;;;;;;5053892;28;20045;-72
2022/03/09 03:39:34;;;;;;;33.88;18.90;;;1.00;99.90;;;;;;5052947;28;20043;-71
2022/03/09 03:42:02;;;;;;;31.50;19.33;;;0.90;99.90;;;;;;5053491;28;20400;-72
2022/03/09 03:44:29;;;;;;;33.63;18.35;;;0.90;99.90;;;;;;5053190;28;20041;-72
2022/03/09 03:46:56;;;;;;;32.40;19.00;;;1.00;99.90;;;;;;5053313;28;20052;-72
2022/03/09 03:49:23;;;;;;;33.53;20.38;;;1.10;99.90;;;;;;5053394;28;20051;-73
2022/03/09 03:51:51;;;;;;;35.58;21.17;;;1.30;99.90;;;;;;5053102;28;20048;-71
2022/03/09 03:54:18;;;;;;;33.05;20.67;;;1.20;99.90;;;;;;5052887;28;20068;-70
2022/03/09 03:56:46;;;;;;;33.60;19.00;;;1.00;99.90;;;;;;5052694;28;20496;-72
2022/03/09 03:59:14;;;;;;;29.17;18.38;;;0.70;99.90;;;;;;5052946;28;20496;-71
2022/03/09 04:01:41;;;;;;;30.60;16.98;;;0.60;99.90;;;;;;5052999;28;20514;-73
2022/03/09 04:04:09;;;;;;;35.97;19.08;;;0.70;99.90;;;;;;5053031;28;20095;-73
2022/03/09 04:06:36;;;;;;;42.00;20.95;;;1.00;99.90;;;;;;5053349;28;20068;-72
2022/03/09 04:09:03;;;;;;;28.75;18.90;;;1.10;99.90;;;;;;5052436;28;20388;-71
2022/03/09 04:11:31;;;;;;;31.42;19.10;;;1.20;99.90;;;;;;5053270;28;20503;-72
2022/03/09 04:13:58;;;;;;;32.38;18.27;;;1.20;99.90;;;;;;5052807;28;20377;-73
2022/03/09 04:16:25;;;;;;;27.05;18.33;;;1.10;99.90;;;;;;5051284;28;20418;-72
2022/03/09 04:18:55;;;;;;;29.60;17.23;;;1.10;99.90;;;;;;5052673;28;20073;-72
2022/03/09 04:21:22;;;;;;;27.27;16.60;;;1.20;99.90;;;;;;5052741;28;20408;-72
2022/03/09 04:23:50;;;;;;;33.58;17.50;;;1.10;99.90;;;;;;5052292;28;20144;-73
2022/03/09 04:26:17;;;;;;;30.38;16.83;;;1.10;99.90;;;;;;5052935;28;20059;-71
2022/03/09 04:28:44;;;;;;;29.20;15.95;;;1.20;99.90;;;;;;5054674;28;20678;-72
2022/03/09 04:31:11;;;;;;;28.30;16.58;;;1.10;99.90;;;;;;5072570;28;20537;-71
2022/03/09 04:33:39;;;;;;;29.48;17.85;;;1.30;99.90;;;;;;5071114;28;20483;-72
2022/03/09 04:36:09;;;;;;;30.67;18.67;;;1.30;99.90;;;;;;5072209;28;20530;-73
2022/03/09 04:38:36;;;;;;;32.40;18.23;;;1.20;99.90;;;;;;5070804;28;20058;-72
2022/03/09 04:41:03;;;;;;;30.95;18.48;;;1.20;99.90;;;;;;5072166;28;20048;-72
2022/03/09 04:43:30;;;;;;;29.48;17.83;;;1.30;99.90;;;;;;5071991;28;20407;-70
2022/03/09 04:45:58;;;;;;;28.63;16.92;;;1.30;99.90;;;;;;5072175;28;20384;-71
2022/03/09 04:48:26;;;;;;;27.52;16.00;;;1.30;99.90;;;;;;5071924;28;20060;-71
2022/03/09 04:50:54;;;;;;;32.63;15.82;;;1.30;99.90;;;;;;5071785;28;20396;-73
2022/03/09 04:53:21;;;;;;;33.67;18.88;;;1.50;99.90;;;;;;5072179;28;20041;-73
2022/03/09 04:55:48;;;;;;;32.67;17.10;;;1.40;99.90;;;;;;5056676;28;20044;-73
2022/03/09 04:58:16;;;;;;;26.10;16.65;;;1.40;99.90;;;;;;5051808;28;20115;-72
2022/03/09 05:00:43;;;;;;;29.35;17.48;;;1.50;99.90;;;;;;5051527;28;20037;-73
2022/03/09 05:03:10;;;;;;;32.10;17.17;;;1.60;99.90;;;;;;5051955;28;20052;-71
2022/03/09 05:05:38;;;;;;;29.65;17.95;;;1.60;99.90;;;;;;5051526;28;20048;-74
2022/03/09 05:08:05;;;;;;;32.15;18.30;;;1.60;99.90;;;;;;5052095;28;20048;-72
2022/03/09 05:10:32;;;;;;;31.77;18.30;;;1.70;99.90;;;;;;5051779;28;20388;-72
2022/03/09 05:12:59;;;;;;;37.42;20.63;;;1.80;99.90;;;;;;5051838;28;20488;-72
2022/03/09 05:15:27;;;;;;;34.47;21.08;;;1.80;99.90;;;;;;5051492;28;20037;-73
2022/03/09 05:17:54;;;;;;;40.85;20.30;;;1.70;99.90;;;;;;5051609;28;20056;-71
2022/03/09 05:20:22;;;;;;;34.20;20.40;;;1.70;99.90;;;;;;5051050;28;20036;-72
2022/03/09 05:22:51;;;;;;;38.45;20.90;;;1.70;99.90;;;;;;5052206;28;20071;-71
2022/03/09 05:25:19;;;;;;;34.60;21.42;;;1.80;99.90;;;;;;5051485;28;20395;-71
2022/03/09 05:27:46;;;;;;;35.10;19.70;;;1.90;99.90;;;;;;5051508;28;20045;-72
2022/03/09 05:30:13;;;;;;;35.25;19.23;;;1.90;99.90;;;;;;5064174;28;20043;-72
2022/03/09 05:32:41;;;;;;;33.28;19.17;;;1.90;99.90;;;;;;5070309;28;20495;-73
2022/03/09 05:35:09;;;;;;;35.60;18.90;;;1.60;99.90;;;;;;5070975;28;20115;-73
2022/03/09 05:37:42;;;;;;;33.08;18.95;;;1.40;99.90;;;;;;5071503;28;20538;-72
2022/03/09 05:40:09;;;;;;;35.30;20.00;;;1.50;99.90;;;;;;5071070;28;20051;-71
2022/03/09 05:42:37;;;;;;;35.78;18.90;;;1.60;99.90;;;;;;5071321;28;20044;-72
2022/03/09 05:45:05;;;;;;;33.67;18.50;;;1.60;99.90;;;;;;5071178;28;20047;-73
2022/03/09 05:47:48;;;;;;;39.38;18.38;;;1.40;99.90;;;;;;5071008;28;20045;-72
2022/03/09 05:50:15;;;;;;;32.33;18.48;;;1.70;99.90;;;;;;5070995;28;20435;-71
2022/03/09 05:52:43;;;;;;;29.77;16.85;;;1.80;99.90;;;;;;5071682;28;20128;-73
2022/03/09 05:55:11;;;;;;;21.60;13.65;;;1.80;99.90;;;;;;5071298;28;20048;-73
2022/03/09 05:57:38;;;;;;;27.20;14.70;;;1.70;99.90;;;;;;5071251;28;20040;-73
2022/03/09 06:00:09;;;;;;;20.77;12.40;;;1.60;99.90;;;;;;5070939;28;20049;-70
2022/03/09 06:02:36;;;;;;;23.30;14.32;;;1.50;99.90;;;;;;5071190;28;20400;-71
2022/03/09 06:05:04;;;;;;;20.48;13.13;;;1.50;99.90;;;;;;5070861;28;20037;-72
2022/03/09 06:07:32;;;;;;;25.50;14.35;;;1.60;99.90;;;;;;5071301;28;20055;-72
2022/03/09 06:09:59;;;;;;;22.25;14.23;;;1.70;99.90;;;;;;5070664;28;20037;-72
2022/03/09 06:12:26;;;;;;;21.45;12.98;;;1.70;99.90;;;;;;5071110;28;20040;-72
2022/03/09 06:14:55;;;;;;;23.25;12.27;;;1.90;99.90;;;;;;5070634;28;20048;-72
2022/03/09 06:17:22;;;;;;;16.75;10.77;;;2.00;99.90;;;;;;5070343;28;20438;-71
2022/03/09 06:19:51;;;;;;;15.45;8.93;;;2.20;99.90;;;;;;5070773;28;20124;-71
2022/03/09 06:22:18;;;;;;;17.50;10.50;;;2.10;99.90;;;;;;5074609;28;20535;-72
2022/03/09 06:24:46;;;;;;;16.75;9.98;;;2.00;99.90;;;;;;5074471;28;20045;-74
2022/03/09 06:27:13;;;;;;;14.45;10.38;;;2.20;99.90;;;;;;5074324;28;20037;-71
2022/03/09 06:29:40;;;;;;;14.13;9.57;;;2.40;99.90;;;;;;5067576;28;20068;-73
2022/03/09 06:32:08;;;;;;;14.60;10.00;;;2.40;99.90;;;;;;5054341;28;20411;-70
2022/03/09 06:34:36;;;;;;;14.30;9.63;;;2.70;99.90;;;;;;5054463;28;20041;-72
2022/03/09 06:37:03;;;;;;;15.98;10.93;;;2.50;99.90;;;;;;5054586;28;20044;-73
2022/03/09 06:39:30;;;;;;;18.70;10.73;;;2.30;99.90;;;;;;5054547;28;20047;-71
2022/03/09 06:41:58;;;;;;;18.98;10.50;;;2.50;99.90;;;;;;5054579;28;20071;-72
2022/03/09 06:44:25;;;;;;;14.65;10.20;;;2.50;99.90;;;;;;5036708;28;20499;-72
2022/03/09 06:46:52;;;;;;;15.27;10.20;;;2.50;99.90;;;;;;5054347;28;20080;-71
2022/03/09 06:49:20;;;;;;;14.85;10.23;;;2.20;99.90;;;;;;5054328;28;20052;-71
2022/03/09 06:51:48;;;;;;;19.63;12.63;;;2.50;99.90;;;;;;5054659;28;20123;-72
2022/03/09 06:54:15;;;;;;;18.25;11.50;;;2.50;99.90;;;;;;5052440;28;20400;-74
2022/03/09 06:56:42;;;;;;;17.45;11.57;;;2.40;99.90;;;;;;5037157;28;20045;-73
2022/03/09 06:59:09;;;;;;;49.03;26.38;;;2.40;99.90;;;;;;5034054;28;20116;-74
2022/03/09 07:01:36;;;;;;;19.20;11.55;;;2.70;99.90;;;;;;5034046;28;20048;-70
2022/03/09 07:04:04;;;;;;;17.05;10.65;;;2.50;99.90;;;;;;5034408;28;20042;-72
2022/03/09 07:06:34;;;;;;;12.45;8.32;;;2.80;99.90;;;;;;5034422;28;20400;-71
2022/03/09 07:09:01;;;;;;;19.63;10.68;;;2.50;99.80;;;;;;5033582;28;20045;-71
2022/03/09 07:11:28;;;;;;;15.57;11.02;;;2.40;99.90;;;;;;5033920;28;20401;-72
2022/03/09 07:13:56;;;;;;;18.08;11.23;;;2.70;99.90;;;;;;5033826;28;20117;-72
2022/03/09 07:16:23;;;;;;;15.02;10.32;;;2.70;98.20;;;;;;5033630;28;20044;-70
2022/03/09 07:18:52;;;;;;;16.17;10.13;;;2.90;98.10;;;;;;5042010;28;20049;-71
2022/03/09 07:21:19;;;;;;;13.50;9.20;;;3.00;98.30;;;;;;5047879;28;20544;-70
2022/03/09 07:23:47;;;;;;;14.80;9.65;;;3.00;97.00;;;;;;5053422;28;20037;-71
2022/03/09 07:26:14;;;;;;;12.57;8.73;;;3.00;97.70;;;;;;5053882;28;20047;-71
2022/03/09 07:28:41;;;;;;;13.73;9.40;;;3.00;96.60;;;;;;5061523;28;20501;-71
2022/03/09 07:31:09;;;;;;;13.60;8.93;;;3.30;96.10;;;;;;5065553;28;20038;-72
2022/03/09 07:33:36;;;;;;;11.57;8.93;;;3.20;95.70;;;;;;5031624;28;20049;-73
2022/03/09 07:36:04;;;;;;;16.15;9.70;;;3.10;95.70;;;;;;5033652;28;20573;-73
2022/03/09 07:38:32;;;;;;;13.68;9.18;;;3.20;95.80;;;;;;5033541;28;20057;-71
2022/03/09 07:41:00;;;;;;;15.32;9.73;;;3.20;95.80;;;;;;5033680;28;20537;-72
2022/03/09 07:43:27;;;;;;;11.98;9.02;;;3.30;94.90;;;;;;5033173;28;20467;-75
2022/03/09 07:45:54;;;;;;;10.93;8.82;;;3.40;94.90;;;;;;5033476;28;20056;-72
2022/03/09 07:48:22;;;;;;;12.07;8.80;;;3.60;94.20;;;;;;5031992;28;20061;-72
2022/03/09 07:50:49;;;;;;;13.30;9.55;;;3.70;92.90;;;;;;5033333;28;20041;-72
2022/03/09 07:53:16;;;;;;;11.20;7.28;;;3.10;94.50;;;;;;5033160;28;20049;-73
2022/03/09 07:55:44;;;;;;;15.50;9.27;;;3.20;94.10;;;;;;5033024;28;20044;-71
2022/03/09 07:58:11;;;;;;;13.82;8.55;;;3.30;93.40;;;;;;5033026;28;20411;-70
2022/03/09 08:00:38;;;;;;;10.80;9.13;;;3.50;93.50;;;;;;5032939;28;20460;-72
2022/03/09 08:03:05;;;;;;;12.30;9.23;;;3.50;92.50;;;;;;5033196;28;20400;-73
2022/03/09 08:05:53;;;;;;;12.32;9.10;;;3.40;93.60;;;;;;5040833;28;20030;-69
2022/03/09 08:08:20;;;;;;;11.77;8.07;;;3.50;93.20;;;;;;5047169;28;20045;-71
2022/03/09 08:10:47;;;;;;;15.02;9.93;;;3.90;91.20;;;;;;5052897;28;20033;-72
2022/03/09 08:13:14;;;;;;;9.73;6.50;;;4.10;91.80;;;;;;5052734;28;20056;-71
2022/03/09 08:15:41;;;;;;;14.18;10.30;;;4.00;90.50;;;;;;5052090;28;20045;-73
2022/03/09 08:18:09;;;;;;;14.10;9.50;;;3.90;90.20;;;;;;5032817;28;20413;-70
2022/03/09 08:20:37;;;;;;;10.07;7.93;;;4.20;89.40;;;;;;5035611;28;20060;-70
2022/03/09 08:23:04;;;;;;;10.25;8.68;;;4.10;88.80;;;;;;5041855;28;20034;-70
2022/03/09 08:25:31;;;;;;;11.35;9.55;;;3.90;90.90;;;;;;5042338;28;20403;-70
2022/03/09 08:28:00;;;;;;;12.52;9.40;;;3.90;91.60;;;;;;5048897;28;20504;-73
2022/03/09 08:30:28;;;;;;;14.18;8.82;;;4.50;90.70;;;;;;5071552;28;20037;-70
2022/03/09 08:32:55;;;;;;;13.48;8.93;;;4.70;82.80;;;;;;5037206;28;20453;-72
2022/03/09 08:35:28;;;;;;;12.73;8.98;;;4.80;81.20;;;;;;5038762;28;20033;-71
2022/03/09 08:37:56;;;;;;;11.93;9.38;;;4.90;82.10;;;;;;5042134;28;20044;-68
2022/03/09 08:40:23;;;;;;;13.00;8.55;;;5.30;81.90;;;;;;5042986;28;20397;-68
2022/03/09 08:42:51;;;;;;;13.48;9.73;;;5.30;80.60;;;;;;5040724;28;20037;-69
2022/03/09 08:45:18;;;;;;;13.52;8.93;;;5.40;78.80;;;;;;5043703;28;20037;-74
2022/03/09 08:47:46;;;;;;;15.90;8.18;;;5.40;78.20;;;;;;5035515;28;20041;-71
2022/03/09 08:50:13;;;;;;;13.55;8.27;;;5.50;77.80;;;;;;5042108;28;20041;-72
2022/03/09 08:53:00;;;;;;;11.45;8.30;;;5.00;80.00;;;;;;5043035;28;20040;-74
2022/03/09 08:55:27;;;;;;;17.85;9.23;;;5.30;78.90;;;;;;5041142;28;20038;-74
2022/03/09 08:57:55;;;;;;;12.85;8.77;;;5.60;78.10;;;;;;5041012;28;20037;-75
2022/03/09 09:00:23;;;;;;;12.35;8.45;;;5.50;74.70;;;;;;5042486;28;20037;-71
2022/03/09 09:02:51;;;;;;;10.55;7.72;;;5.60;73.40;;;;;;5041117;28;20493;-72
2022/03/09 09:05:19;;;;;;;13.68;8.68;;;6.00;69.90;;;;;;5042409;28;20037;-72
2022/03/09 09:07:46;;;;;;;11.90;8.30;;;6.20;67.70;;;;;;5039586;28;20552;-71
2022/03/09 09:10:14;;;;;;;11.30;7.97;;;6.70;67.10;;;;;;5041066;28;20626;-71
2022/03/09 09:12:41;;;;;;;11.60;7.93;;;6.90;64.80;;;;;;5042069;28;20047;-71
2022/03/09 09:15:08;;;;;;;9.85;7.03;;;6.60;65.50;;;;;;5039669;28;20045;-70
2022/03/09 09:17:35;;;;;;;12.50;8.43;;;6.60;65.40;;;;;;5040973;28;20042;-71
2022/03/09 09:20:06;;;;;;;27.10;16.83;;;6.80;65.30;;;;;;5040400;28;20091;-70
2022/03/09 09:22:35;;;;;;;49.72;26.50;;;7.10;69.60;;;;;;5043995;28;20048;-69
2022/03/09 09:25:24;;;;;;;21.38;14.60;;;7.60;71.30;;;;;;5038279;28;20053;-70
2022/03/09 09:27:53;;;;;;;13.98;7.95;;;7.30;62.00;;;;;;5041393;28;20518;-74
2022/03/09 09:30:22;;;;;;;10.13;7.53;;;6.60;63.20;;;;;;5041978;28;20068;-70
2022/03/09 09:32:49;;;;;;;12.70;7.53;;;6.30;63.50;;;;;;5034612;28;20493;-73
2022/03/09 09:35:17;;;;;;;14.45;8.07;;;6.10;66.10;;;;;;5031202;28;20045;-72
2022/03/09 09:37:46;;;;;;;12.38;8.75;;;5.90;66.70;;;;;;5031853;28;20393;-74
2022/03/09 09:40:15;;;;;;;12.45;8.27;;;5.90;66.90;;;;;;5031299;28;20401;-73
2022/03/09 09:42:44;;;;;;;9.98;7.38;;;5.20;67.80;;;;;;5031205;28;20045;-74
2022/03/09 09:45:20;;;;;;;11.90;7.60;;;4.80;67.60;;;;;;5031697;28;20126;-72
2022/03/09 09:47:51;;;;;;;;;;;4.70;67.40;;;;;;5031482;28;20041;-73
2022/03/09 09:50:18;;;;;;;9.85;7.28;;;5.20;68.50;;;;;;5031121;28;19921;-72
2022/03/09 09:52:45;;;;;;;11.50;7.50;;;5.30;66.70;;;;;;5031348;28;20060;-74
2022/03/09 09:55:13;;;;;;;11.80;7.53;;;5.70;68.20;;;;;;5030474;28;20416;-73
2022/03/09 09:57:41;;;;;;;10.23;8.20;;;6.20;66.10;;;;;;5030104;28;20038;-72
2022/03/09 10:00:09;;;;;;;10.63;7.97;;;6.10;65.20;;;;;;5031174;28;20041;-71
2022/03/09 10:02:37;;;;;;;9.30;7.00;;;6.20;64.30;;;;;;5030972;28;20382;-71
2022/03/09 10:05:05;;;;;;;12.50;7.75;;;6.20;61.60;;;;;;5031054;28;20041;-73
2022/03/09 10:07:32;;;;;;;9.45;6.93;;;6.40;61.70;;;;;;5031287;28;20497;-73
2022/03/09 10:10:00;;;;;;;9.60;6.50;;;6.50;61.20;;;;;;5027048;28;20161;-73
2022/03/09 10:12:29;;;;;;;10.68;6.85;;;6.90;61.10;;;;;;5030830;28;20044;-73
2022/03/09 10:15:00;;;;;;;11.98;7.57;;;7.00;61.60;;;;;;5029698;28;20037;-73
2022/03/09 10:17:30;;;;;;;10.40;7.57;;;6.70;63.80;;;;;;5030393;28;20060;-72
2022/03/09 10:20:11;;;;;;;11.65;8.40;;;6.50;66.00;;;;;;5029528;28;20072;-73
2022/03/09 10:22:46;;;;;;;12.32;8.18;;;6.50;65.90;;;;;;5031018;28;20048;-73
2022/03/09 10:25:23;;;;;;;10.70;7.50;;;6.80;66.30;;;;;;5030486;28;20486;-73
2022/03/09 10:27:56;;;;;;;11.82;8.57;;;6.90;65.00;;;;;;5030361;28;20044;-74
2022/03/09 10:30:35;;;;;;;11.75;8.10;;;6.80;65.00;;;;;;5063616;28;20036;-73
2022/03/09 10:33:08;;;;;;;9.95;7.60;;;6.50;65.90;;;;;;5033026;28;20543;-73
2022/03/09 10:35:44;;;;;;;12.57;8.73;;;6.40;66.10;;;;;;5030801;28;20492;-75
2022/03/09 10:38:15;;;;;;;25.85;15.13;;;6.60;67.00;;;;;;5031115;28;20041;-72
2022/03/09 10:40:45;;;;;;;34.45;19.98;;;6.60;69.80;;;;;;5030500;28;20117;-73
2022/03/09 10:43:19;;;;;;;17.53;11.10;;;6.50;71.60;;;;;;5030580;28;20041;-73
2022/03/09 10:46:10;;;;;;;13.70;9.07;;;6.20;69.70;;;;;;5029293;28;20048;-75
2022/03/09 10:48:52;;;;;;;14.05;9.00;;;6.20;69.00;;;;;;5029213;28;20068;-76
2022/03/09 10:51:33;;;;;;;12.18;7.50;;;6.20;68.40;;;;;;5030847;28;20432;-75
2022/03/09 10:54:06;;;;;;;12.15;8.95;;;6.50;66.60;;;;;;5031559;28;20068;-75
2022/03/09 10:56:34;;;;;;;12.60;7.47;;;6.60;65.70;;;;;;5040447;28;20451;-74
2022/03/09 10:59:28;;;;;;;11.25;8.00;;;6.80;66.50;;;;;;5039129;28;20034;-75
2022/03/09 11:02:03;;;;;;;14.93;8.75;;;7.00;65.10;;;;;;5039140;28;20467;-73
2022/03/09 11:04:31;;;;;;;11.50;8.18;;;7.40;64.80;;;;;;5040265;28;20389;-74
2022/03/09 11:06:58;;;;;;;12.23;8.15;;;7.70;63.30;;;;;;5040870;28;20038;-75
2022/03/09 11:09:26;;;;;;;9.85;7.70;;;8.20;62.30;;;;;;5042195;28;20068;-75
2022/03/09 11:11:53;;;;;;;10.85;7.45;;;8.80;61.90;;;;;;5043868;28;20370;-72
2022/03/09 11:14:25;;;;;;;9.45;7.05;;;8.90;59.50;;;;;;5042194;28;20037;-74
2022/03/09 11:17:00;;;;;;;10.93;7.95;;;9.00;58.80;;;;;;5042641;28;20125;-74
2022/03/09 11:19:28;;;;;;;13.80;7.90;;;8.00;60.60;;;;;;5042766;28;20033;-72
2022/03/09 11:21:55;;;;;;;11.25;8.30;;;7.70;61.10;;;;;;5043261;28;20045;-77
2022/03/09 11:24:23;;;;;;;12.65;8.70;;;7.30;62.50;;;;;;5042168;28;20036;-75
2022/03/09 11:27:01;;;;;;;12.45;8.30;;;7.10;64.40;;;;;;5043476;28;20041;-74
2022/03/09 11:29:35;;;;;;;10.50;7.95;;;7.50;62.90;;;;;;5047360;28;20063;-77
2022/03/09 11:32:11;;;;;;;12.00;8.18;;;7.50;61.60;;;;;;5040604;28;20033;-78
2022/03/09 11:34:44;;;;;;;12.88;7.93;;;7.60;61.10;;;;;;5042577;28;20041;-76
2022/03/09 11:37:35;;;;;;;10.57;7.32;;;7.60;58.90;;;;;;5042189;28;20124;-79
2022/03/09 11:40:12;;;;;;;10.10;7.10;;;7.50;58.40;;;;;;5036927;28;20471;-77
2022/03/09 11:42:44;;;;;;;9.40;6.80;;;7.60;57.60;;;;;;5042178;28;20429;-74
2022/03/09 11:45:14;;;;;;;8.70;6.38;;;7.90;57.70;;;;;;5040289;28;20441;-73
2022/03/09 11:47:56;;;;;;;9.77;6.63;;;8.00;58.50;;;;;;5033039;28;20041;-77
2022/03/09 11:50:28;;;;;;;9.70;6.45;;;7.90;59.20;;;;;;5033023;28;20471;-76
2022/03/09 11:53:01;;;;;;;12.05;7.50;;;8.00;58.80;;;;;;5049215;28;20127;-72
2022/03/09 11:55:29;;;;;;;11.18;8.23;;;8.00;59.10;;;;;;5052895;28;20119;-73
2022/03/09 11:58:01;;;;;;;11.13;8.23;;;7.20;61.20;;;;;;5053344;28;20041;-77
2022/03/09 12:00:28;;;;;;;10.63;7.50;;;6.90;63.10;;;;;;5052716;28;20037;-75
2022/03/09 12:02:56;;;;;;;12.88;7.55;;;7.00;62.20;;;;;;5034246;28;20121;-75
2022/03/09 12:05:36;;;;;;;10.93;7.78;;;6.70;61.40;;;;;;5032660;28;20459;-77
2022/03/09 12:08:16;;;;;;;12.87;7.53;;;6.40;62.70;;;;;;5033595;28;20045;-76
2022/03/09 12:10:54;;;;;;;10.85;7.43;;;6.60;64.30;;;;;;5033146;28;20478;-74
2022/03/09 12:13:32;;;;;;;12.35;7.28;;;6.50;63.20;;;;;;5015404;28;20081;-79
2022/03/09 12:16:18;;;;;;;10.70;7.38;;;6.80;62.30;;;;;;5032509;28;20064;-83
2022/03/09 12:19:00;;;;;;;10.13;6.55;;;7.00;61.00;;;;;;5031036;28;20053;-74
2022/03/09 12:21:28;;;;;;;11.82;7.05;;;7.20;60.10;;;;;;5031149;28;20147;-82
2022/03/09 12:24:04;;;;;;;13.38;7.28;;;7.20;59.50;;;;;;5031436;28;20052;-71
2022/03/09 12:26:49;;;;;;;9.15;6.07;;;7.00;59.10;;;;;;5031648;28;20092;-74
2022/03/09 12:29:25;;;;;;;8.95;6.70;;;8.00;57.90;;;;;;5040149;28;20498;-74
2022/03/09 12:32:10;;;;;;;11.30;7.07;;;7.90;58.20;;;;;;5060445;28;20055;-71
2022/03/09 12:34:42;;;;;;;10.00;6.55;;;7.80;57.50;;;;;;5050846;28;20091;-75
2022/03/09 12:37:19;;;;;;;10.30;6.65;;;7.30;57.00;;;;;;5052286;28;20395;-74
2022/03/09 12:40:06;;;;;;;8.73;6.07;;;7.10;59.10;;;;;;5052415;28;20120;-77
2022/03/09 12:42:33;;;;;;;9.98;7.13;;;6.50;59.30;;;;;;5052375;28;20069;-72
2022/03/09 12:45:02;;;;;;;8.52;6.25;;;6.60;60.60;;;;;;5052153;28;20052;-76
2022/03/09 12:47:34;;;;;;;8.63;5.85;;;7.00;57.50;;;;;;5038292;28;20374;-72
2022/03/09 12:50:04;;;;;;;8.45;6.20;;;7.40;59.50;;;;;;5032228;28;20045;-73
2022/03/09 12:52:41;;;;;;;7.90;5.70;;;8.20;56.60;;;;;;5034431;28;20033;-74
2022/03/09 12:55:09;;;;;;;9.52;6.10;;;7.90;56.20;;;;;;5040865;28;20409;-78
2022/03/09 12:57:36;;;;;;;9.73;6.32;;;7.60;55.90;;;;;;5040773;28;20064;-75